createdAt,value
2018-12-29T00:00:45.391Z,28.55
2018-12-29T00:01:18.474Z,27.75
2018-12-29T00:01:51.617Z,28.27
2018-12-29T00:02:24.473Z,28.07
2018-12-29T00:02:57.404Z,28.02
2018-12-29T00:03:30.462Z,28.20
2018-12-29T00:04:03.531Z,28.00
2018-12-29T00:04:36.402Z,28.27
2018-12-29T00:05:09.451Z,28.35
2018-12-29T00:05:42.319Z,28.67
2018-12-29T00:06:15.307Z,28.17
2018-12-29T00:06:48.376Z,28.10
2018-12-29T00:07:21.308Z,28.40
2018-12-29T00:07:54.378Z,28.42
2018-12-29T00:08:27.597Z,28.73
2018-12-29T00:09:00.493Z,27.73
2018-12-29T00:09:33.324Z,28.40
2018-12-29T00:10:06.312Z,28.73
2018-12-29T00:10:41.197Z,28.40
2018-12-29T00:11:14.161Z,28.77
2018-12-29T00:11:47.094Z,28.40
2018-12-29T00:12:20.049Z,28.85
2018-12-29T00:12:53.111Z,29.00
2018-12-29T00:13:26.152Z,29.18
2018-12-29T00:13:59.124Z,28.32
2018-12-29T00:14:31.982Z,28.15
2018-12-29T00:15:05.078Z,28.67
2018-12-29T00:15:38.025Z,28.77
2018-12-29T00:16:10.897Z,28.17
2018-12-29T00:16:43.990Z,28.83
2018-12-29T00:17:16.969Z,28.57
2018-12-29T00:17:49.926Z,28.90
2018-12-29T00:18:22.880Z,28.90
2018-12-29T00:18:55.863Z,28.60
2018-12-29T00:19:28.878Z,28.30
2018-12-29T00:20:01.933Z,28.73
2018-12-29T00:20:35.002Z,28.45
2018-12-29T00:21:07.938Z,29.92
2018-12-29T00:21:41.011Z,29.48
2018-12-29T00:22:13.856Z,29.42
2018-12-29T00:22:46.812Z,29.23
2018-12-29T00:23:19.838Z,29.50
2018-12-29T00:23:52.770Z,29.20
2018-12-29T00:24:25.826Z,29.87
2018-12-29T00:24:58.910Z,29.80
2018-12-29T00:25:31.963Z,28.92
2018-12-29T00:26:05.133Z,29.32
2018-12-29T00:26:38.204Z,29.18
2018-12-29T00:27:11.264Z,29.98
2018-12-29T00:27:44.248Z,29.42
2018-12-29T00:28:17.242Z,29.35
2018-12-29T00:28:50.183Z,29.42
2018-12-29T00:29:23.092Z,29.48
2018-12-29T00:29:56.176Z,29.42
2018-12-29T00:30:29.229Z,29.50
2018-12-29T00:31:02.154Z,29.45
2018-12-29T00:31:35.400Z,29.40
2018-12-29T00:32:08.346Z,28.80
2018-12-29T00:32:41.459Z,29.30
2018-12-29T00:33:14.372Z,28.83
2018-12-29T00:33:47.401Z,28.85
2018-12-29T00:34:20.208Z,29.65
2018-12-29T00:34:53.340Z,29.13
2018-12-29T00:35:26.396Z,29.52
2018-12-29T00:35:59.406Z,29.75
2018-12-29T00:36:32.299Z,30.10
2018-12-29T00:37:05.363Z,29.42
2018-12-29T00:37:38.370Z,29.42
2018-12-29T00:38:11.305Z,30.30
2018-12-29T00:38:44.230Z,29.60
2018-12-29T00:39:17.129Z,29.63
2018-12-29T00:39:50.087Z,29.63
2018-12-29T00:40:23.126Z,29.80
2018-12-29T00:40:56.053Z,29.57
2018-12-29T00:41:28.970Z,29.77
2018-12-29T00:42:01.900Z,29.52
2018-12-29T00:42:34.695Z,29.60
2018-12-29T00:43:07.597Z,29.87
2018-12-29T00:43:40.420Z,29.87
2018-12-29T00:44:13.365Z,29.80
2018-12-29T00:44:46.165Z,29.42
2018-12-29T00:45:19.179Z,29.30
2018-12-29T00:45:52.093Z,29.77
2018-12-29T00:46:25.026Z,28.98
2018-12-29T00:46:57.925Z,29.57
2018-12-29T00:47:30.758Z,30.00
2018-12-29T00:48:03.875Z,29.55
2018-12-29T00:48:36.714Z,29.75
2018-12-29T00:49:09.529Z,30.30
2018-12-29T00:49:42.447Z,29.20
2018-12-29T00:50:15.457Z,30.20
2018-12-29T00:50:48.417Z,29.95
2018-12-29T00:51:21.411Z,29.90
2018-12-29T00:51:54.336Z,30.00
2018-12-29T00:52:27.261Z,29.75
2018-12-29T00:53:00.085Z,29.98
2018-12-29T00:53:33.013Z,30.00
2018-12-29T00:54:06.069Z,30.00
2018-12-29T00:54:39.038Z,29.12
2018-12-29T00:55:11.987Z,30.37
2018-12-29T00:55:44.869Z,29.20
2018-12-29T00:56:17.989Z,30.68
2018-12-29T00:56:50.895Z,29.95
2018-12-29T00:57:23.719Z,30.08
2018-12-29T00:57:56.539Z,30.10
2018-12-29T00:58:29.573Z,29.92
2018-12-29T00:59:02.463Z,30.13
2018-12-29T00:59:35.397Z,30.40
2018-12-29T01:00:08.431Z,30.08
2018-12-29T01:00:41.289Z,30.32
2018-12-29T01:01:14.103Z,29.92
2018-12-29T01:01:47.123Z,30.08
2018-12-29T01:02:20.056Z,29.77
2018-12-29T01:02:52.997Z,29.48
2018-12-29T01:03:25.959Z,30.55
2018-12-29T01:03:58.783Z,29.57
2018-12-29T01:04:31.719Z,30.23
2018-12-29T01:05:04.739Z,29.60
2018-12-29T01:05:37.855Z,30.60
2018-12-29T01:06:10.871Z,30.43
2018-12-29T01:06:43.799Z,29.67
2018-12-29T01:07:16.907Z,30.45
2018-12-29T01:07:49.845Z,29.80
2018-12-29T01:08:22.959Z,29.75
2018-12-29T01:08:55.908Z,29.50
2018-12-29T01:09:28.718Z,29.65
2018-12-29T01:10:01.812Z,30.12
2018-12-29T01:10:34.834Z,29.75
2018-12-29T01:11:07.639Z,30.02
2018-12-29T01:11:40.573Z,30.30
2018-12-29T01:13:01.248Z,29.80
2018-12-29T01:13:34.527Z,29.95
2018-12-29T01:14:07.385Z,30.23
2018-12-29T01:14:40.319Z,29.92
2018-12-29T01:15:13.181Z,29.85
2018-12-29T01:15:46.115Z,30.17
2018-12-29T01:16:19.053Z,30.72
2018-12-29T01:16:52.014Z,30.60
2018-12-29T01:17:25.091Z,29.80
2018-12-29T01:17:58.085Z,30.02
2018-12-29T01:18:31.192Z,30.15
2018-12-29T01:19:04.235Z,30.00
2018-12-29T01:19:37.333Z,30.40
2018-12-29T01:20:10.361Z,29.92
2018-12-29T01:20:43.442Z,30.63
2018-12-29T01:21:30.655Z,30.52
2018-12-29T01:22:03.803Z,29.92
2018-12-29T01:22:37.003Z,30.00
2018-12-29T01:23:09.900Z,29.65
2018-12-29T01:24:39.395Z,30.30
2018-12-29T01:25:12.472Z,30.75
2018-12-29T01:25:45.445Z,30.40
2018-12-29T01:26:18.397Z,30.17
2018-12-29T01:26:51.408Z,30.17
2018-12-29T01:27:24.447Z,30.77
2018-12-29T01:27:57.519Z,30.65
2018-12-29T01:28:30.486Z,30.17
2018-12-29T01:29:03.564Z,30.68
2018-12-29T01:29:36.504Z,30.08
2018-12-29T01:30:09.456Z,30.45
2018-12-29T01:30:42.546Z,30.25
2018-12-29T01:31:15.507Z,30.52
2018-12-29T01:31:48.581Z,30.97
2018-12-29T01:32:21.410Z,30.02
2018-12-29T01:32:54.496Z,31.07
2018-12-29T01:33:47.172Z,30.40
2018-12-29T01:34:20.012Z,30.50
2018-12-29T01:34:52.890Z,30.30
2018-12-29T01:35:25.943Z,30.62
2018-12-29T01:35:58.888Z,31.25
2018-12-29T01:36:31.795Z,30.15
2018-12-29T01:37:04.822Z,30.15
2018-12-29T01:37:37.900Z,30.65
2018-12-29T01:38:10.862Z,30.68
2018-12-29T01:38:43.948Z,30.82
2018-12-29T01:39:17.023Z,30.43
2018-12-29T01:39:49.882Z,30.72
2018-12-29T01:40:22.856Z,30.55
2018-12-29T01:40:55.724Z,31.10
2018-12-29T01:41:28.596Z,30.62
2018-12-29T01:42:01.562Z,30.30
2018-12-29T01:42:34.636Z,30.62
2018-12-29T01:43:07.620Z,30.30
2018-12-29T01:43:40.538Z,30.68
2018-12-29T01:44:13.561Z,30.48
2018-12-29T01:44:46.747Z,30.60
2018-12-29T01:45:19.816Z,30.80
2018-12-29T01:45:52.840Z,30.68
2018-12-29T01:46:25.731Z,30.68
2018-12-29T01:46:58.876Z,30.52
2018-12-29T01:47:31.904Z,30.40
2018-12-29T01:48:04.823Z,30.30
2018-12-29T01:48:37.750Z,30.85
2018-12-29T01:49:12.598Z,30.65
2018-12-29T01:49:45.561Z,31.20
2018-12-29T01:50:18.632Z,30.15
2018-12-29T01:50:51.780Z,31.02
2018-12-29T01:51:24.844Z,30.82
2018-12-29T01:51:59.774Z,30.57
2018-12-29T01:52:32.800Z,30.52
2018-12-29T01:53:05.909Z,30.30
2018-12-29T01:55:05.648Z,30.80
2018-12-29T01:55:38.590Z,30.90
2018-12-29T01:56:11.474Z,31.02
2018-12-29T01:56:44.404Z,30.00
2018-12-29T01:57:17.327Z,30.55
2018-12-29T01:57:50.268Z,30.90
2018-12-29T01:58:23.232Z,30.95
2018-12-29T01:58:56.256Z,30.68
2018-12-29T01:59:29.150Z,31.33
2018-12-29T02:00:02.238Z,31.07
2018-12-29T02:00:35.292Z,31.25
2018-12-29T02:01:08.150Z,30.77
2018-12-29T02:01:41.139Z,31.40
2018-12-29T02:02:13.960Z,30.65
2018-12-29T02:02:46.916Z,31.20
2018-12-29T02:03:19.873Z,31.27
2018-12-29T02:03:53.569Z,31.90
2018-12-29T02:04:26.706Z,30.55
2018-12-29T02:04:59.680Z,31.05
2018-12-29T02:05:32.658Z,31.33
2018-12-29T02:06:05.759Z,31.55
2018-12-29T02:06:38.821Z,31.55
2018-12-29T02:07:11.809Z,31.17
2018-12-29T02:07:44.675Z,31.73
2018-12-29T02:08:17.713Z,31.40
2018-12-29T02:08:50.687Z,31.42
2018-12-29T02:09:23.651Z,31.65
2018-12-29T02:09:56.698Z,31.50
2018-12-29T02:10:29.741Z,31.00
2018-12-29T02:11:02.722Z,31.37
2018-12-29T02:11:35.753Z,30.65
2018-12-29T02:12:08.696Z,31.17
2018-12-29T02:12:41.779Z,31.60
2018-12-29T02:13:14.727Z,30.57
2018-12-29T02:13:47.701Z,31.55
2018-12-29T02:14:20.768Z,31.42
2018-12-29T02:14:53.645Z,31.27
2018-12-29T02:15:26.489Z,31.12
2018-12-29T02:15:59.335Z,31.07
2018-12-29T02:16:32.407Z,31.35
2018-12-29T02:17:05.358Z,30.70
2018-12-29T02:17:38.249Z,32.00
2018-12-29T02:18:13.281Z,31.30
2018-12-29T02:18:54.360Z,31.55
2018-12-29T02:19:27.329Z,32.13
2018-12-29T02:20:00.369Z,31.52
2018-12-29T02:20:33.397Z,30.90
2018-12-29T02:21:06.351Z,31.77
2018-12-29T02:21:39.415Z,31.40
2018-12-29T02:22:12.393Z,31.93
2018-12-29T02:22:45.328Z,31.23
2018-12-29T02:23:18.226Z,32.25
2018-12-29T02:23:51.103Z,31.65
2018-12-29T02:24:24.150Z,31.07
2018-12-29T02:24:57.143Z,31.15
2018-12-29T02:25:30.137Z,31.15
2018-12-29T02:26:03.070Z,31.55
2018-12-29T02:26:36.036Z,31.60
2018-12-29T02:27:09.087Z,30.45
2018-12-29T02:27:42.115Z,31.10
2018-12-29T02:28:15.097Z,32.00
2018-12-29T02:28:48.221Z,31.65
2018-12-29T02:29:21.263Z,31.27
2018-12-29T02:29:54.207Z,31.90
2018-12-29T02:30:27.088Z,31.93
2018-12-29T02:31:00.107Z,31.50
2018-12-29T02:31:33.144Z,31.30
2018-12-29T02:32:06.111Z,31.65
2018-12-29T02:32:38.993Z,31.87
2018-12-29T02:33:11.943Z,31.65
2018-12-29T02:34:53.828Z,31.00
2018-12-29T02:35:26.657Z,31.80
2018-12-29T02:35:59.658Z,31.60
2018-12-29T02:36:32.617Z,31.75
2018-12-29T02:37:05.427Z,31.35
2018-12-29T02:37:38.531Z,31.55
2018-12-29T02:38:11.479Z,31.07
2018-12-29T02:38:44.553Z,32.00
2018-12-29T02:39:17.526Z,32.28
2018-12-29T02:39:50.496Z,31.37
2018-12-29T02:40:23.524Z,32.58
2018-12-29T02:40:56.691Z,31.60
2018-12-29T02:41:29.620Z,31.40
2018-12-29T02:42:02.663Z,31.70
2018-12-29T02:42:35.568Z,31.52
2018-12-29T02:43:08.429Z,31.97
2018-12-29T02:43:41.473Z,32.20
2018-12-29T02:44:14.414Z,32.33
2018-12-29T02:44:47.444Z,31.85
2018-12-29T02:45:20.365Z,32.25
2018-12-29T02:45:53.307Z,31.75
2018-12-29T02:46:26.374Z,31.95
2018-12-29T02:46:59.246Z,32.63
2018-12-29T02:47:32.265Z,31.65
2018-12-29T02:48:05.244Z,31.05
2018-12-29T02:48:38.192Z,31.80
2018-12-29T02:49:11.194Z,31.73
2018-12-29T02:49:57.557Z,32.58
2018-12-29T02:50:30.420Z,31.80
2018-12-29T02:51:03.378Z,32.10
2018-12-29T02:51:36.412Z,32.48
2018-12-29T02:52:09.327Z,32.48
2018-12-29T02:52:42.298Z,31.37
2018-12-29T02:53:15.244Z,32.03
2018-12-29T02:53:48.280Z,32.15
2018-12-29T02:54:21.273Z,31.68
2018-12-29T02:54:54.221Z,32.10
2018-12-29T02:55:27.183Z,32.15
2018-12-29T02:56:00.059Z,31.60
2018-12-29T02:56:33.112Z,32.28
2018-12-29T02:57:06.046Z,31.70
2018-12-29T02:57:39.101Z,32.60
2018-12-29T02:58:12.093Z,32.65
2018-12-29T02:58:45.164Z,31.97
2018-12-29T02:59:18.193Z,32.83
2018-12-29T02:59:51.242Z,32.28
2018-12-29T03:00:24.178Z,32.53
2018-12-29T03:00:57.267Z,32.30
2018-12-29T03:01:30.228Z,31.50
2018-12-29T03:02:03.574Z,31.17
2018-12-29T03:02:38.416Z,32.23
2018-12-29T03:03:11.283Z,32.08
2018-12-29T03:03:44.238Z,32.35
2018-12-29T03:04:17.103Z,31.07
2018-12-29T03:04:50.285Z,31.62
2018-12-29T03:05:23.253Z,32.03
2018-12-29T03:05:56.182Z,31.85
2018-12-29T03:06:29.118Z,32.55
2018-12-29T03:07:02.036Z,31.65
2018-12-29T03:07:35.113Z,31.85
2018-12-29T03:08:08.002Z,31.40
2018-12-29T03:08:40.936Z,31.97
2018-12-29T03:09:13.821Z,32.67
2018-12-29T03:09:46.775Z,32.13
2018-12-29T03:10:19.875Z,32.25
2018-12-29T03:10:52.834Z,32.13
2018-12-29T03:11:25.633Z,31.87
2018-12-29T03:11:59.266Z,32.00
2018-12-29T03:12:32.164Z,32.70
2018-12-29T03:13:05.019Z,33.05
2018-12-29T03:13:37.912Z,33.05
2018-12-29T03:14:10.965Z,32.33
2018-12-29T03:14:43.874Z,32.98
2018-12-29T03:15:16.682Z,32.42
2018-12-29T03:15:49.677Z,32.42
2018-12-29T03:16:22.603Z,32.98
2018-12-29T03:16:55.489Z,32.85
2018-12-29T03:17:28.447Z,33.23
2018-12-29T03:18:01.348Z,32.67
2018-12-29T03:18:34.172Z,32.63
2018-12-29T03:19:07.171Z,32.88
2018-12-29T03:19:40.361Z,33.40
2018-12-29T03:20:13.400Z,33.20
2018-12-29T03:20:46.347Z,33.02
2018-12-29T03:21:19.146Z,33.20
2018-12-29T03:21:52.190Z,33.13
2018-12-29T03:22:25.095Z,33.38
2018-12-29T03:22:57.917Z,33.55
2018-12-29T03:23:30.735Z,32.35
2018-12-29T03:24:03.711Z,32.85
2018-12-29T03:24:36.738Z,33.40
2018-12-29T03:25:09.749Z,32.80
2018-12-29T03:25:42.761Z,33.75
2018-12-29T03:26:15.677Z,32.95
2018-12-29T03:26:48.501Z,32.63
2018-12-29T03:27:21.275Z,32.98
2018-12-29T03:27:54.126Z,32.80
2018-12-29T03:28:26.911Z,33.65
2018-12-29T03:28:59.831Z,33.25
2018-12-29T03:29:32.727Z,33.92
2018-12-29T03:30:05.961Z,33.40
2018-12-29T03:30:38.851Z,33.10
2018-12-29T03:31:11.865Z,33.40
2018-12-29T03:31:44.651Z,33.85
2018-12-29T03:32:17.550Z,33.08
2018-12-29T03:32:50.364Z,32.90
2018-12-29T03:33:23.242Z,33.28
2018-12-29T03:33:56.239Z,34.23
2018-12-29T03:34:29.293Z,33.48
2018-12-29T03:35:02.303Z,33.83
2018-12-29T03:35:35.313Z,33.15
2018-12-29T03:36:08.355Z,34.18
2018-12-29T03:36:41.235Z,33.55
2018-12-29T03:37:14.058Z,33.95
2018-12-29T03:37:47.046Z,33.65
2018-12-29T03:38:19.874Z,33.53
2018-12-29T03:38:52.672Z,34.33
2018-12-29T03:39:25.618Z,34.05
2018-12-29T03:39:58.641Z,34.03
2018-12-29T03:40:31.535Z,33.75
2018-12-29T03:41:45.500Z,34.30
2018-12-29T03:42:20.425Z,34.18
2018-12-29T03:42:53.370Z,33.30
2018-12-29T03:43:26.378Z,33.45
2018-12-29T03:43:59.365Z,33.98
2018-12-29T03:44:32.423Z,34.13
2018-12-29T03:45:05.647Z,33.48
2018-12-29T03:45:38.934Z,33.08
2018-12-29T03:46:12.122Z,33.65
2018-12-29T03:46:45.171Z,33.75
2018-12-29T03:47:18.148Z,33.60
2018-12-29T03:47:51.163Z,34.20
2018-12-29T03:48:24.197Z,33.48
2018-12-29T03:48:57.375Z,33.25
2018-12-29T03:49:30.365Z,33.75
2018-12-29T03:50:03.938Z,33.28
2018-12-29T03:51:00.045Z,33.67
2018-12-29T03:51:33.150Z,34.03
2018-12-29T03:52:06.143Z,33.70
2018-12-29T03:53:26.945Z,34.27
2018-12-29T03:53:59.874Z,34.05
2018-12-29T03:54:32.878Z,33.63
2018-12-29T03:55:05.879Z,33.85
2018-12-29T03:55:39.045Z,34.20
2018-12-29T03:56:12.250Z,33.65
2018-12-29T03:56:45.427Z,33.55
2018-12-29T03:57:18.382Z,33.25
2018-12-29T03:57:51.249Z,33.45
2018-12-29T03:58:24.222Z,33.90
2018-12-29T03:58:57.070Z,34.13
2018-12-29T03:59:29.928Z,33.67
2018-12-29T04:00:03.524Z,33.50
2018-12-29T04:00:36.449Z,33.05
2018-12-29T04:01:09.506Z,34.00
2018-12-29T04:01:42.564Z,33.53
2018-12-29T04:02:15.675Z,33.25
2018-12-29T04:02:48.657Z,33.42
2018-12-29T04:03:21.594Z,33.95
2018-12-29T04:03:54.726Z,33.83
2018-12-29T04:04:27.768Z,33.45
2018-12-29T04:05:00.873Z,34.03
2018-12-29T04:05:33.905Z,33.90
2018-12-29T04:06:06.933Z,34.20
2018-12-29T04:06:39.894Z,33.80
2018-12-29T04:07:12.948Z,33.28
2018-12-29T04:07:46.002Z,33.35
2018-12-29T04:08:18.954Z,33.88
2018-12-29T04:09:49.472Z,33.42
2018-12-29T04:10:22.437Z,33.35
2018-12-29T04:10:55.461Z,34.13
2018-12-29T04:11:28.318Z,33.40
2018-12-29T04:12:23.363Z,33.25
2018-12-29T04:13:00.735Z,34.35
2018-12-29T04:13:34.864Z,34.08
2018-12-29T04:14:07.834Z,33.75
2018-12-29T04:14:41.424Z,33.58
2018-12-29T04:15:15.382Z,33.78
2018-12-29T04:15:48.384Z,33.53
2018-12-29T04:16:21.340Z,33.95
2018-12-29T04:16:54.580Z,33.35
2018-12-29T04:17:27.549Z,33.38
2018-12-29T04:18:00.634Z,33.70
2018-12-29T04:18:33.528Z,33.33
2018-12-29T04:19:06.373Z,33.53
2018-12-29T04:19:39.249Z,33.13
2018-12-29T04:20:12.200Z,33.50
2018-12-29T04:20:45.150Z,33.08
2018-12-29T04:21:18.172Z,33.67
2018-12-29T04:21:51.170Z,33.15
2018-12-29T04:22:24.026Z,33.50
2018-12-29T04:22:57.003Z,33.53
2018-12-29T04:23:29.934Z,33.80
2018-12-29T04:24:03.031Z,33.45
2018-12-29T04:24:35.906Z,33.58
2018-12-29T04:25:08.985Z,33.73
2018-12-29T04:25:42.026Z,33.30
2018-12-29T04:26:14.956Z,33.58
2018-12-29T04:26:48.015Z,33.60
2018-12-29T04:27:21.010Z,33.20
2018-12-29T04:27:53.972Z,32.98
2018-12-29T04:28:26.829Z,33.90
2018-12-29T04:28:59.866Z,34.00
2018-12-29T04:29:32.822Z,33.18
2018-12-29T04:30:05.833Z,33.83
2018-12-29T04:30:38.749Z,33.40
2018-12-29T04:31:11.791Z,32.98
2018-12-29T04:31:44.890Z,33.23
2018-12-29T04:32:17.848Z,34.15
2018-12-29T04:32:50.827Z,33.48
2018-12-29T04:33:51.466Z,33.73
2018-12-29T04:34:24.429Z,33.23
2018-12-29T04:34:57.368Z,33.13
2018-12-29T04:36:15.970Z,33.78
2018-12-29T04:36:48.948Z,33.35
2018-12-29T04:37:21.885Z,33.08
2018-12-29T04:37:54.979Z,32.88
2018-12-29T04:38:28.063Z,32.88
2018-12-29T04:39:00.924Z,33.83
2018-12-29T04:39:34.009Z,33.50
2018-12-29T04:40:07.063Z,33.85
2018-12-29T04:40:39.919Z,33.50
2018-12-29T04:41:12.767Z,33.10
2018-12-29T04:41:45.703Z,32.90
2018-12-29T04:42:18.625Z,33.13
2018-12-29T04:42:51.655Z,34.38
2018-12-29T04:43:26.495Z,33.75
2018-12-29T04:43:59.554Z,33.55
2018-12-29T04:44:32.662Z,33.15
2018-12-29T04:45:05.784Z,33.50
2018-12-29T04:45:38.843Z,33.45
2018-12-29T04:46:11.888Z,33.85
2018-12-29T04:46:44.741Z,32.83
2018-12-29T04:47:17.790Z,33.13
2018-12-29T04:47:50.840Z,33.20
2018-12-29T04:48:23.923Z,33.13
2018-12-29T04:48:56.959Z,33.18
2018-12-29T04:49:29.927Z,32.73
2018-12-29T04:50:03.079Z,33.23
2018-12-29T04:50:36.126Z,32.98
2018-12-29T04:51:09.216Z,33.00
2018-12-29T04:51:42.245Z,33.55
2018-12-29T04:52:15.203Z,33.50
2018-12-29T04:52:48.283Z,33.23
2018-12-29T04:53:21.111Z,33.65
2018-12-29T04:53:54.065Z,33.15
2018-12-29T04:54:27.203Z,33.15
2018-12-29T04:55:00.088Z,32.88
2018-12-29T04:55:47.239Z,33.40
2018-12-29T04:56:20.353Z,33.10
2018-12-29T04:56:53.413Z,32.78
2018-12-29T04:57:26.391Z,33.25
2018-12-29T04:57:59.397Z,33.05
2018-12-29T04:58:32.473Z,32.85
2018-12-29T04:59:05.427Z,33.13
2018-12-29T04:59:38.285Z,33.48
2018-12-29T05:00:11.371Z,33.23
2018-12-29T05:00:44.487Z,33.23
2018-12-29T05:01:17.649Z,33.05
2018-12-29T05:01:50.725Z,32.90
2018-12-29T05:02:37.793Z,32.95
2018-12-29T05:03:10.823Z,33.45
2018-12-29T05:03:43.908Z,32.80
2018-12-29T05:04:16.827Z,33.08
2018-12-29T05:04:49.881Z,32.53
2018-12-29T05:05:22.893Z,33.35
2018-12-29T05:05:55.983Z,33.75
2018-12-29T05:06:28.959Z,33.20
2018-12-29T05:07:01.977Z,32.73
2018-12-29T05:07:34.907Z,34.13
2018-12-29T05:08:07.895Z,33.38
2018-12-29T05:08:41.074Z,32.78
2018-12-29T05:09:14.016Z,33.13
2018-12-29T05:09:46.816Z,33.42
2018-12-29T05:10:19.775Z,32.67
2018-12-29T05:10:52.661Z,33.13
2018-12-29T05:11:25.713Z,33.20
2018-12-29T05:11:58.514Z,32.67
2018-12-29T05:12:31.450Z,32.88
2018-12-29T05:13:04.256Z,33.28
2018-12-29T05:13:37.337Z,33.53
2018-12-29T05:14:10.242Z,33.05
2018-12-29T05:14:43.191Z,32.88
2018-12-29T05:15:16.195Z,33.23
2018-12-29T05:15:49.244Z,33.28
2018-12-29T05:16:22.231Z,33.05
2018-12-29T05:16:55.418Z,32.53
2018-12-29T05:17:28.211Z,32.03
2018-12-29T05:18:01.258Z,32.58
2018-12-29T05:18:34.053Z,32.80
2018-12-29T05:19:06.991Z,32.55
2018-12-29T05:19:39.825Z,32.85
2018-12-29T05:20:12.769Z,33.10
2018-12-29T05:21:08.605Z,33.42
2018-12-29T05:21:41.577Z,32.65
2018-12-29T05:22:14.506Z,32.45
2018-12-29T05:22:47.389Z,33.08
2018-12-29T05:23:20.383Z,32.15
2018-12-29T05:24:41.445Z,32.85
2018-12-29T05:25:14.548Z,33.00
2018-12-29T05:25:47.496Z,31.87
2018-12-29T05:26:20.441Z,33.65
2018-12-29T05:26:53.457Z,33.23
2018-12-29T05:27:26.435Z,32.03
2018-12-29T05:27:59.550Z,32.70
2018-12-29T05:28:32.489Z,33.40
2018-12-29T05:29:05.473Z,32.75
2018-12-29T05:29:38.555Z,34.10
2018-12-29T05:30:11.489Z,33.38
2018-12-29T05:30:44.437Z,32.00
2018-12-29T05:31:17.518Z,32.53
2018-12-29T05:31:50.461Z,32.75
2018-12-29T05:32:23.355Z,32.83
2018-12-29T05:32:56.173Z,32.95
2018-12-29T05:33:29.073Z,31.80
2018-12-29T05:34:02.257Z,31.80
2018-12-29T05:34:35.087Z,32.10
2018-12-29T05:35:08.002Z,32.90
2018-12-29T05:35:40.912Z,32.35
2018-12-29T05:36:13.971Z,32.48
2018-12-29T05:36:46.978Z,32.53
2018-12-29T05:37:19.814Z,31.40
2018-12-29T05:37:52.608Z,32.50
2018-12-29T05:38:25.657Z,32.53
2018-12-29T05:38:58.543Z,31.90
2018-12-29T05:39:31.380Z,31.52
2018-12-29T05:40:04.397Z,32.08
2018-12-29T05:40:37.579Z,32.17
2018-12-29T05:41:10.504Z,31.90
2018-12-29T05:41:43.336Z,32.13
2018-12-29T05:42:16.244Z,31.45
2018-12-29T05:42:49.189Z,31.57
2018-12-29T05:43:22.139Z,32.20
2018-12-29T05:43:54.921Z,32.28
2018-12-29T05:44:27.744Z,32.05
2018-12-29T05:45:00.753Z,32.33
2018-12-29T05:45:33.678Z,33.00
2018-12-29T05:46:06.613Z,32.10
2018-12-29T05:46:39.442Z,32.05
2018-12-29T05:47:12.366Z,32.00
2018-12-29T05:47:45.366Z,32.25
2018-12-29T05:48:18.180Z,32.08
2018-12-29T05:48:51.092Z,32.53
2018-12-29T05:49:24.046Z,32.58
2018-12-29T05:49:56.955Z,32.58
2018-12-29T05:50:29.916Z,31.93
2018-12-29T05:51:02.922Z,32.00
2018-12-29T05:51:35.864Z,32.33
2018-12-29T05:52:08.784Z,33.00
2018-12-29T05:52:41.682Z,31.70
2018-12-29T05:53:14.614Z,31.95
2018-12-29T05:53:49.359Z,32.10
2018-12-29T05:54:22.254Z,31.70
2018-12-29T05:54:55.224Z,32.03
2018-12-29T05:55:28.060Z,32.00
2018-12-29T05:56:01.041Z,31.75
2018-12-29T05:56:34.220Z,31.42
2018-12-29T05:57:07.166Z,32.10
2018-12-29T05:57:39.977Z,31.55
2018-12-29T05:58:12.972Z,31.87
2018-12-29T05:58:45.973Z,31.80
2018-12-29T05:59:19.132Z,31.48
2018-12-29T05:59:52.208Z,32.05
2018-12-29T06:00:25.159Z,31.25
2018-12-29T06:00:58.118Z,31.70
2018-12-29T06:01:31.282Z,31.85
2018-12-29T06:02:04.256Z,32.03
2018-12-29T06:02:37.152Z,31.37
2018-12-29T06:03:10.044Z,31.42
2018-12-29T06:03:42.948Z,31.87
2018-12-29T06:04:15.861Z,31.57
2018-12-29T06:04:48.776Z,31.97
2018-12-29T06:05:21.794Z,31.80
2018-12-29T06:05:54.650Z,31.35
2018-12-29T06:06:47.237Z,31.10
2018-12-29T06:07:20.168Z,30.45
2018-12-29T06:07:53.136Z,30.75
2018-12-29T06:08:26.006Z,30.70
2018-12-29T06:08:58.904Z,30.60
2018-12-29T06:09:31.859Z,30.75
2018-12-29T06:10:04.928Z,30.37
2018-12-29T06:10:37.928Z,30.72
2018-12-29T06:11:10.899Z,30.95
2018-12-29T06:11:43.848Z,31.40
2018-12-29T06:12:16.758Z,31.05
2018-12-29T06:12:49.644Z,30.93
2018-12-29T06:13:22.608Z,30.50
2018-12-29T06:13:55.662Z,30.05
2018-12-29T06:14:28.534Z,30.08
2018-12-29T06:15:01.638Z,30.48
2018-12-29T06:15:34.628Z,30.50
2018-12-29T06:16:07.609Z,30.50
2018-12-29T06:16:40.580Z,30.43
2018-12-29T06:17:13.640Z,30.75
2018-12-29T06:17:46.616Z,30.60
2018-12-29T06:18:19.447Z,30.25
2018-12-29T06:18:52.496Z,30.37
2018-12-29T06:19:25.453Z,30.12
2018-12-29T06:19:58.296Z,30.50
2018-12-29T06:20:31.342Z,29.67
2018-12-29T06:21:04.414Z,29.12
2018-12-29T06:21:37.502Z,30.45
2018-12-29T06:22:10.470Z,29.90
2018-12-29T06:22:43.343Z,30.25
2018-12-29T06:23:16.431Z,30.25
2018-12-29T06:23:49.470Z,30.17
2018-12-29T06:24:22.398Z,29.80
2018-12-29T06:24:55.468Z,30.20
2018-12-29T06:25:28.403Z,29.82
2018-12-29T06:26:01.270Z,29.95
2018-12-29T06:26:34.346Z,29.95
2018-12-29T06:27:07.316Z,29.37
2018-12-29T06:27:40.310Z,29.60
2018-12-29T06:28:13.242Z,30.20
2018-12-29T06:28:46.183Z,29.90
2018-12-29T06:29:19.106Z,30.70
2018-12-29T06:29:52.118Z,30.43
2018-12-29T06:30:25.084Z,29.65
2018-12-29T06:30:58.062Z,29.87
2018-12-29T06:31:31.024Z,29.72
2018-12-29T06:32:04.235Z,29.35
2018-12-29T06:32:37.178Z,30.25
2018-12-29T06:33:10.010Z,29.57
2018-12-29T06:33:42.854Z,28.87
2018-12-29T06:34:15.699Z,28.98
2018-12-29T06:34:48.777Z,29.63
2018-12-29T06:35:21.738Z,28.90
2018-12-29T06:35:54.752Z,29.50
2018-12-29T06:36:27.742Z,29.12
2018-12-29T06:37:00.902Z,29.23
2018-12-29T06:37:33.916Z,29.12
2018-12-29T06:38:06.834Z,28.67
2018-12-29T06:38:39.931Z,29.27
2018-12-29T06:39:13.102Z,28.98
2018-12-29T06:39:46.107Z,29.35
2018-12-29T06:40:19.134Z,28.90
2018-12-29T06:40:52.149Z,28.32
2018-12-29T06:41:25.108Z,29.10
2018-12-29T06:41:57.898Z,28.45
2018-12-29T06:42:30.950Z,28.73
2018-12-29T06:43:03.836Z,29.42
2018-12-29T06:43:36.892Z,28.75
2018-12-29T06:44:09.818Z,29.07
2018-12-29T06:44:42.736Z,28.75
2018-12-29T06:45:15.636Z,29.07
2018-12-29T06:45:48.680Z,29.15
2018-12-29T06:46:21.700Z,28.97
2018-12-29T06:46:54.574Z,28.27
2018-12-29T06:47:27.448Z,28.60
2018-12-29T06:48:00.477Z,29.20
2018-12-29T06:48:33.580Z,29.12
2018-12-29T06:49:06.738Z,28.30
2018-12-29T06:49:39.728Z,28.92
2018-12-29T06:50:12.978Z,28.65
2018-12-29T06:50:45.878Z,28.55
2018-12-29T06:51:19.020Z,28.62
2018-12-29T06:51:51.911Z,28.30
2018-12-29T06:52:24.948Z,28.27
2018-12-29T06:52:57.725Z,29.18
2018-12-29T06:53:30.795Z,28.77
2018-12-29T06:54:03.915Z,28.57
2018-12-29T06:54:36.831Z,28.10
2018-12-29T06:55:09.816Z,28.80
2018-12-29T06:55:42.878Z,28.57
2018-12-29T06:56:15.761Z,28.42
2018-12-29T06:56:48.700Z,28.32
2018-12-29T06:57:21.599Z,28.60
2018-12-29T06:57:54.561Z,28.45
2018-12-29T06:58:27.472Z,28.30
2018-12-29T06:59:00.298Z,28.15
2018-12-29T06:59:33.113Z,28.45
2018-12-29T07:00:06.599Z,28.50
2018-12-29T07:00:39.524Z,27.90
2018-12-29T07:01:12.507Z,28.42
2018-12-29T07:01:45.443Z,27.73
2018-12-29T07:02:18.529Z,27.82
2018-12-29T07:02:51.511Z,28.12
2018-12-29T07:03:24.572Z,28.00
2018-12-29T07:03:57.590Z,27.45
2018-12-29T07:04:30.533Z,27.95
2018-12-29T07:05:03.578Z,27.37
2018-12-29T07:05:36.564Z,27.17
2018-12-29T07:06:09.681Z,27.13
2018-12-29T07:06:42.627Z,27.52
2018-12-29T07:07:15.581Z,27.60
2018-12-29T07:07:48.620Z,27.27
2018-12-29T07:08:21.693Z,27.62
2018-12-29T07:08:54.767Z,27.55
2018-12-29T07:09:27.745Z,26.60
2018-12-29T07:10:00.880Z,27.73
2018-12-29T07:10:33.919Z,27.10
2018-12-29T07:11:06.921Z,27.20
2018-12-29T07:11:39.992Z,27.32
2018-12-29T07:13:39.220Z,27.02
2018-12-29T07:14:12.187Z,26.90
2018-12-29T07:14:45.136Z,26.90
2018-12-29T07:15:18.013Z,26.57
2018-12-29T07:15:51.077Z,26.60
2018-12-29T07:16:24.113Z,26.50
2018-12-29T07:16:57.192Z,26.93
2018-12-29T07:17:30.161Z,26.52
2018-12-29T07:18:03.221Z,27.02
2018-12-29T07:18:36.183Z,26.70